sensor_id;sensor_type;location;lat;lon;timestamp;P1;durP1;ratioP1;P2;durP2;ratioP2
21615;SDS011;10970;48.714;9.584;2022-08-06T00:01:58;4.53;;;2.40;;
21615;SDS011;10970;48.714;9.584;2022-08-06T00:04:24;2.93;;;2.40;;
21615;SDS011;10970;48.714;9.584;2022-08-06T00:06:50;2.57;;;2.27;;
21615;SDS011;10970;48.714;9.584;2022-08-06T00:09:16;1.93;;;1.67;;
21615;SDS011;10970;48.714;9.584;2022-08-06T00:11:42;2.33;;;1.70;;
21615;SDS011;10970;48.714;9.584;2022-08-06T00:14:08;2.17;;;2.00;;
21615;SDS011;10970;48.714;9.584;2022-08-06T00:16:35;3.23;;;1.90;;
21615;SDS011;10970;48.714;9.584;2022-08-06T00:19:01;2.50;;;1.97;;
21615;SDS011;10970;48.714;9.584;2022-08-06T00:21:26;1.37;;;1.30;;
21615;SDS011;10970;48.714;9.584;2022-08-06T00:23:52;2.50;;;2.30;;
21615;SDS011;10970;48.714;9.584;2022-08-06T00:26:18;2.00;;;1.60;;
21615;SDS011;10970;48.714;9.584;2022-08-06T00:28:44;1.63;;;1.53;;
21615;SDS011;10970;48.714;9.584;2022-08-06T00:31:10;2.13;;;2.03;;
21615;SDS011;10970;48.714;9.584;2022-08-06T00:33:37;2.20;;;2.00;;
21615;SDS011;10970;48.714;9.584;2022-08-06T00:36:04;2.93;;;1.70;;
21615;SDS011;10970;48.714;9.584;2022-08-06T00:38:30;1.70;;;1.60;;
21615;SDS011;10970;48.714;9.584;2022-08-06T00:40:56;1.80;;;1.70;;
21615;SDS011;10970;48.714;9.584;2022-08-06T00:43:23;3.70;;;2.67;;
21615;SDS011;10970;48.714;9.584;2022-08-06T00:45:49;1.43;;;1.33;;
21615;SDS011;10970;48.714;9.584;2022-08-06T00:48:15;1.97;;;1.77;;
21615;SDS011;10970;48.714;9.584;2022-08-06T00:50:41;1.97;;;1.87;;
21615;SDS011;10970;48.714;9.584;2022-08-06T00:53:07;2.00;;;1.80;;
21615;SDS011;10970;48.714;9.584;2022-08-06T00:55:33;5.17;;;2.00;;
21615;SDS011;10970;48.714;9.584;2022-08-06T00:57:59;1.80;;;1.53;;
21615;SDS011;10970;48.714;9.584;2022-08-06T01:00:25;2.07;;;1.87;;
21615;SDS011;10970;48.714;9.584;2022-08-06T01:02:51;2.07;;;1.93;;
21615;SDS011;10970;48.714;9.584;2022-08-06T01:05:17;2.17;;;1.50;;
21615;SDS011;10970;48.714;9.584;2022-08-06T01:07:43;2.27;;;2.07;;
21615;SDS011;10970;48.714;9.584;2022-08-06T01:10:08;3.30;;;2.10;;
21615;SDS011;10970;48.714;9.584;2022-08-06T01:12:34;3.77;;;1.93;;
21615;SDS011;10970;48.714;9.584;2022-08-06T01:15:00;3.03;;;1.77;;
21615;SDS011;10970;48.714;9.584;2022-08-06T01:22:56;1.90;;;1.77;;
21615;SDS011;10970;48.714;9.584;2022-08-06T01:28:00;2.33;;;2.13;;
21615;SDS011;10970;48.714;9.584;2022-08-06T01:30:32;1.70;;;1.30;;
21615;SDS011;10970;48.714;9.584;2022-08-06T01:33:07;1.57;;;1.47;;
21615;SDS011;10970;48.714;9.584;2022-08-06T01:35:35;2.27;;;1.63;;
21615;SDS011;10970;48.714;9.584;2022-08-06T01:40:29;4.13;;;1.63;;
21615;SDS011;10970;48.714;9.584;2022-08-06T01:42:58;2.40;;;1.67;;
21615;SDS011;10970;48.714;9.584;2022-08-06T01:45:26;2.07;;;1.63;;
21615;SDS011;10970;48.714;9.584;2022-08-06T01:47:56;4.63;;;1.73;;
21615;SDS011;10970;48.714;9.584;2022-08-06T01:50:27;1.83;;;1.60;;
21615;SDS011;10970;48.714;9.584;2022-08-06T01:53:01;2.67;;;1.87;;
21615;SDS011;10970;48.714;9.584;2022-08-06T01:55:30;1.47;;;1.37;;
21615;SDS011;10970;48.714;9.584;2022-08-06T01:58:01;1.63;;;1.40;;
21615;SDS011;10970;48.714;9.584;2022-08-06T02:00:29;1.50;;;1.40;;
21615;SDS011;10970;48.714;9.584;2022-08-06T02:03:00;2.37;;;1.97;;
21615;SDS011;10970;48.714;9.584;2022-08-06T02:05:31;3.30;;;1.50;;
21615;SDS011;10970;48.714;9.584;2022-08-06T02:08:00;2.83;;;1.67;;
21615;SDS011;10970;48.714;9.584;2022-08-06T02:10:27;1.50;;;1.40;;
21615;SDS011;10970;48.714;9.584;2022-08-06T02:12:57;2.30;;;1.50;;
21615;SDS011;10970;48.714;9.584;2022-08-06T02:15:27;1.53;;;1.43;;
21615;SDS011;10970;48.714;9.584;2022-08-06T02:17:54;2.23;;;1.80;;
21615;SDS011;10970;48.714;9.584;2022-08-06T02:20:28;4.07;;;1.50;;
21615;SDS011;10970;48.714;9.584;2022-08-06T02:23:00;1.67;;;1.57;;
21615;SDS011;10970;48.714;9.584;2022-08-06T02:25:28;3.33;;;1.97;;
21615;SDS011;10970;48.714;9.584;2022-08-06T02:27:56;2.30;;;2.10;;
21615;SDS011;10970;48.714;9.584;2022-08-06T02:30:22;1.60;;;1.40;;
21615;SDS011;10970;48.714;9.584;2022-08-06T02:32:50;3.23;;;1.60;;
21615;SDS011;10970;48.714;9.584;2022-08-06T02:35:16;1.30;;;1.20;;
21615;SDS011;10970;48.714;9.584;2022-08-06T02:37:48;1.80;;;1.70;;
21615;SDS011;10970;48.714;9.584;2022-08-06T02:40:21;1.50;;;1.40;;
21615;SDS011;10970;48.714;9.584;2022-08-06T02:42:52;2.00;;;1.90;;
21615;SDS011;10970;48.714;9.584;2022-08-06T02:45:48;2.47;;;1.40;;
21615;SDS011;10970;48.714;9.584;2022-08-06T02:50:47;1.77;;;1.60;;
21615;SDS011;10970;48.714;9.584;2022-08-06T02:53:16;3.53;;;1.40;;
21615;SDS011;10970;48.714;9.584;2022-08-06T02:55:47;1.77;;;1.67;;
21615;SDS011;10970;48.714;9.584;2022-08-06T02:58:17;1.77;;;1.60;;
21615;SDS011;10970;48.714;9.584;2022-08-06T03:00:48;1.50;;;1.40;;
21615;SDS011;10970;48.714;9.584;2022-08-06T03:03:16;2.90;;;1.53;;
21615;SDS011;10970;48.714;9.584;2022-08-06T03:05:46;1.73;;;1.63;;
21615;SDS011;10970;48.714;9.584;2022-08-06T03:08:15;1.80;;;1.47;;
21615;SDS011;10970;48.714;9.584;2022-08-06T03:10:43;2.30;;;2.10;;
21615;SDS011;10970;48.714;9.584;2022-08-06T03:13:10;1.97;;;1.37;;
21615;SDS011;10970;48.714;9.584;2022-08-06T03:15:36;1.93;;;1.70;;
21615;SDS011;10970;48.714;9.584;2022-08-06T03:18:03;3.50;;;1.37;;
21615;SDS011;10970;48.714;9.584;2022-08-06T03:20:32;2.97;;;2.03;;
21615;SDS011;10970;48.714;9.584;2022-08-06T03:23:00;2.97;;;1.50;;
21615;SDS011;10970;48.714;9.584;2022-08-06T03:25:28;3.70;;;2.13;;
21615;SDS011;10970;48.714;9.584;2022-08-06T03:27:57;2.43;;;1.83;;
21615;SDS011;10970;48.714;9.584;2022-08-06T03:30:24;1.63;;;1.33;;
21615;SDS011;10970;48.714;9.584;2022-08-06T03:32:51;1.63;;;1.13;;
21615;SDS011;10970;48.714;9.584;2022-08-06T03:35:18;7.00;;;2.53;;
21615;SDS011;10970;48.714;9.584;2022-08-06T03:37:45;2.70;;;1.47;;
21615;SDS011;10970;48.714;9.584;2022-08-06T03:40:13;3.47;;;1.33;;
21615;SDS011;10970;48.714;9.584;2022-08-06T03:42:40;1.83;;;1.70;;
21615;SDS011;10970;48.714;9.584;2022-08-06T03:45:06;1.73;;;1.63;;
21615;SDS011;10970;48.714;9.584;2022-08-06T03:47:33;3.00;;;1.50;;
21615;SDS011;10970;48.714;9.584;2022-08-06T03:50:05;1.40;;;1.30;;
21615;SDS011;10970;48.714;9.584;2022-08-06T03:52:40;2.13;;;1.67;;
21615;SDS011;10970;48.714;9.584;2022-08-06T03:55:12;1.73;;;1.63;;
21615;SDS011;10970;48.714;9.584;2022-08-06T03:57:42;2.67;;;2.10;;
21615;SDS011;10970;48.714;9.584;2022-08-06T04:00:12;1.97;;;1.87;;
21615;SDS011;10970;48.714;9.584;2022-08-06T04:02:42;2.87;;;1.63;;
21615;SDS011;10970;48.714;9.584;2022-08-06T04:05:11;1.40;;;1.30;;
21615;SDS011;10970;48.714;9.584;2022-08-06T04:07:48;2.30;;;1.60;;
21615;SDS011;10970;48.714;9.584;2022-08-06T04:10:18;2.70;;;1.60;;
21615;SDS011;10970;48.714;9.584;2022-08-06T04:12:45;2.23;;;1.40;;
21615;SDS011;10970;48.714;9.584;2022-08-06T04:15:12;1.73;;;1.63;;
21615;SDS011;10970;48.714;9.584;2022-08-06T04:17:39;2.00;;;1.80;;
21615;SDS011;10970;48.714;9.584;2022-08-06T04:20:07;3.77;;;1.40;;
21615;SDS011;10970;48.714;9.584;2022-08-06T04:22:38;1.63;;;1.53;;
21615;SDS011;10970;48.714;9.584;2022-08-06T04:25:04;1.97;;;1.60;;
21615;SDS011;10970;48.714;9.584;2022-08-06T04:27:31;3.17;;;1.80;;
21615;SDS011;10970;48.714;9.584;2022-08-06T04:29:58;2.03;;;1.83;;
21615;SDS011;10970;48.714;9.584;2022-08-06T04:32:24;2.20;;;1.87;;
21615;SDS011;10970;48.714;9.584;2022-08-06T04:34:51;2.80;;;1.90;;
21615;SDS011;10970;48.714;9.584;2022-08-06T04:37:17;3.33;;;1.50;;
21615;SDS011;10970;48.714;9.584;2022-08-06T04:39:44;4.10;;;1.57;;
21615;SDS011;10970;48.714;9.584;2022-08-06T04:42:10;1.63;;;1.53;;
21615;SDS011;10970;48.714;9.584;2022-08-06T04:44:36;2.50;;;2.30;;
21615;SDS011;10970;48.714;9.584;2022-08-06T04:47:02;2.03;;;1.83;;
21615;SDS011;10970;48.714;9.584;2022-08-06T04:49:29;1.90;;;1.80;;
21615;SDS011;10970;48.714;9.584;2022-08-06T04:51:55;1.57;;;1.47;;
21615;SDS011;10970;48.714;9.584;2022-08-06T04:54:21;2.67;;;1.57;;
21615;SDS011;10970;48.714;9.584;2022-08-06T04:56:47;1.63;;;1.53;;
21615;SDS011;10970;48.714;9.584;2022-08-06T04:59:13;1.70;;;1.60;;
21615;SDS011;10970;48.714;9.584;2022-08-06T05:01:38;3.30;;;1.63;;
21615;SDS011;10970;48.714;9.584;2022-08-06T05:04:04;3.03;;;1.70;;
21615;SDS011;10970;48.714;9.584;2022-08-06T05:09:19;2.20;;;1.30;;
21615;SDS011;10970;48.714;9.584;2022-08-06T05:11:48;2.60;;;2.40;;
21615;SDS011;10970;48.714;9.584;2022-08-06T05:14:35;2.40;;;2.10;;
21615;SDS011;10970;48.714;9.584;2022-08-06T05:17:14;3.20;;;2.00;;
21615;SDS011;10970;48.714;9.584;2022-08-06T05:19:48;1.77;;;1.60;;
21615;SDS011;10970;48.714;9.584;2022-08-06T05:22:18;1.50;;;1.40;;
21615;SDS011;10970;48.714;9.584;2022-08-06T05:24:45;2.87;;;1.73;;
21615;SDS011;10970;48.714;9.584;2022-08-06T05:27:12;4.13;;;2.40;;
21615;SDS011;10970;48.714;9.584;2022-08-06T05:29:39;2.43;;;2.00;;
21615;SDS011;10970;48.714;9.584;2022-08-06T05:32:05;2.90;;;2.40;;
21615;SDS011;10970;48.714;9.584;2022-08-06T05:34:31;2.10;;;1.90;;
21615;SDS011;10970;48.714;9.584;2022-08-06T05:36:57;1.83;;;1.73;;
21615;SDS011;10970;48.714;9.584;2022-08-06T05:39:23;1.93;;;1.73;;
21615;SDS011;10970;48.714;9.584;2022-08-06T05:41:49;2.63;;;2.20;;
21615;SDS011;10970;48.714;9.584;2022-08-06T05:44:14;5.80;;;2.33;;
21615;SDS011;10970;48.714;9.584;2022-08-06T05:46:43;4.90;;;2.80;;
21615;SDS011;10970;48.714;9.584;2022-08-06T05:49:34;3.93;;;1.70;;
21615;SDS011;10970;48.714;9.584;2022-08-06T05:55:04;1.70;;;1.60;;
21615;SDS011;10970;48.714;9.584;2022-08-06T06:00:07;4.63;;;2.03;;
21615;SDS011;10970;48.714;9.584;2022-08-06T06:02:40;2.50;;;1.27;;
21615;SDS011;10970;48.714;9.584;2022-08-06T06:05:18;2.13;;;1.90;;
21615;SDS011;10970;48.714;9.584;2022-08-06T06:07:46;1.70;;;1.60;;
21615;SDS011;10970;48.714;9.584;2022-08-06T06:10:13;4.17;;;2.10;;
21615;SDS011;10970;48.714;9.584;2022-08-06T06:12:39;1.90;;;1.80;;
21615;SDS011;10970;48.714;9.584;2022-08-06T06:15:06;1.93;;;1.70;;
21615;SDS011;10970;48.714;9.584;2022-08-06T06:22:45;2.00;;;1.90;;
21615;SDS011;10970;48.714;9.584;2022-08-06T06:25:13;1.90;;;1.80;;
21615;SDS011;10970;48.714;9.584;2022-08-06T06:27:46;1.93;;;1.83;;
21615;SDS011;10970;48.714;9.584;2022-08-06T06:30:21;2.47;;;2.27;;
21615;SDS011;10970;48.714;9.584;2022-08-06T06:36:02;4.00;;;2.10;;
21615;SDS011;10970;48.714;9.584;2022-08-06T06:38:47;2.80;;;1.83;;
21615;SDS011;10970;48.714;9.584;2022-08-06T06:41:48;1.50;;;1.40;;
21615;SDS011;10970;48.714;9.584;2022-08-06T06:44:33;2.50;;;2.27;;
21615;SDS011;10970;48.714;9.584;2022-08-06T06:52:08;2.83;;;2.53;;
21615;SDS011;10970;48.714;9.584;2022-08-06T06:54:43;2.43;;;2.27;;
21615;SDS011;10970;48.714;9.584;2022-08-06T06:57:13;3.43;;;2.07;;
21615;SDS011;10970;48.714;9.584;2022-08-06T06:59:45;2.80;;;1.87;;
21615;SDS011;10970;48.714;9.584;2022-08-06T07:02:18;3.97;;;2.57;;
21615;SDS011;10970;48.714;9.584;2022-08-06T07:04:47;2.70;;;1.90;;
21615;SDS011;10970;48.714;9.584;2022-08-06T07:07:14;2.30;;;2.10;;
21615;SDS011;10970;48.714;9.584;2022-08-06T07:09:41;1.97;;;1.80;;
21615;SDS011;10970;48.714;9.584;2022-08-06T07:12:09;1.70;;;1.60;;
21615;SDS011;10970;48.714;9.584;2022-08-06T07:14:37;3.67;;;2.03;;
21615;SDS011;10970;48.714;9.584;2022-08-06T07:17:04;1.60;;;1.50;;
21615;SDS011;10970;48.714;9.584;2022-08-06T07:19:31;2.50;;;2.30;;
21615;SDS011;10970;48.714;9.584;2022-08-06T07:21:58;3.10;;;2.00;;
21615;SDS011;10970;48.714;9.584;2022-08-06T07:24:24;3.40;;;2.47;;
21615;SDS011;10970;48.714;9.584;2022-08-06T07:26:56;1.80;;;1.70;;
21615;SDS011;10970;48.714;9.584;2022-08-06T07:29:23;2.23;;;2.10;;
21615;SDS011;10970;48.714;9.584;2022-08-06T07:31:50;3.00;;;2.10;;
21615;SDS011;10970;48.714;9.584;2022-08-06T07:34:16;3.00;;;2.47;;
21615;SDS011;10970;48.714;9.584;2022-08-06T07:36:48;3.23;;;2.33;;
21615;SDS011;10970;48.714;9.584;2022-08-06T07:39:20;2.30;;;2.20;;
21615;SDS011;10970;48.714;9.584;2022-08-06T07:41:49;2.70;;;2.50;;
21615;SDS011;10970;48.714;9.584;2022-08-06T07:44:17;2.00;;;1.80;;
21615;SDS011;10970;48.714;9.584;2022-08-06T07:46:46;3.00;;;2.70;;
21615;SDS011;10970;48.714;9.584;2022-08-06T07:49:15;7.93;;;2.43;;
21615;SDS011;10970;48.714;9.584;2022-08-06T07:51:44;2.53;;;2.30;;
21615;SDS011;10970;48.714;9.584;2022-08-06T07:54:11;2.47;;;2.20;;
21615;SDS011;10970;48.714;9.584;2022-08-06T07:56:39;2.47;;;2.00;;
21615;SDS011;10970;48.714;9.584;2022-08-06T07:59:06;2.40;;;2.20;;
21615;SDS011;10970;48.714;9.584;2022-08-06T08:01:34;3.07;;;2.20;;
21615;SDS011;10970;48.714;9.584;2022-08-06T08:04:01;3.40;;;2.37;;
21615;SDS011;10970;48.714;9.584;2022-08-06T08:06:54;3.30;;;2.33;;
21615;SDS011;10970;48.714;9.584;2022-08-06T08:09:24;3.67;;;3.30;;
21615;SDS011;10970;48.714;9.584;2022-08-06T08:11:51;3.03;;;2.73;;
21615;SDS011;10970;48.714;9.584;2022-08-06T08:14:21;2.47;;;2.27;;
21615;SDS011;10970;48.714;9.584;2022-08-06T08:16:47;3.03;;;2.20;;
21615;SDS011;10970;48.714;9.584;2022-08-06T08:19:21;2.57;;;2.40;;
21615;SDS011;10970;48.714;9.584;2022-08-06T08:21:50;2.40;;;2.20;;
21615;SDS011;10970;48.714;9.584;2022-08-06T08:24:16;3.63;;;2.77;;
21615;SDS011;10970;48.714;9.584;2022-08-06T08:26:42;2.67;;;2.47;;
21615;SDS011;10970;48.714;9.584;2022-08-06T08:29:08;5.63;;;2.63;;
21615;SDS011;10970;48.714;9.584;2022-08-06T08:31:35;2.50;;;2.40;;
21615;SDS011;10970;48.714;9.584;2022-08-06T08:34:01;2.07;;;1.87;;
21615;SDS011;10970;48.714;9.584;2022-08-06T08:36:26;2.50;;;2.20;;
21615;SDS011;10970;48.714;9.584;2022-08-06T08:38:52;3.00;;;2.03;;
21615;SDS011;10970;48.714;9.584;2022-08-06T08:41:25;4.13;;;2.37;;
21615;SDS011;10970;48.714;9.584;2022-08-06T08:44:03;2.77;;;2.30;;
21615;SDS011;10970;48.714;9.584;2022-08-06T08:46:40;2.20;;;1.77;;
21615;SDS011;10970;48.714;9.584;2022-08-06T08:49:10;3.63;;;2.00;;
21615;SDS011;10970;48.714;9.584;2022-08-06T08:51:43;1.80;;;1.70;;
21615;SDS011;10970;48.714;9.584;2022-08-06T08:54:12;1.90;;;1.80;;
21615;SDS011;10970;48.714;9.584;2022-08-06T08:56:41;2.90;;;1.83;;
21615;SDS011;10970;48.714;9.584;2022-08-06T08:59:07;2.10;;;1.73;;
21615;SDS011;10970;48.714;9.584;2022-08-06T09:01:33;4.20;;;2.20;;
21615;SDS011;10970;48.714;9.584;2022-08-06T09:04:03;1.33;;;1.23;;
21615;SDS011;10970;48.714;9.584;2022-08-06T09:06:29;2.30;;;2.10;;
21615;SDS011;10970;48.714;9.584;2022-08-06T09:08:57;1.57;;;1.47;;
21615;SDS011;10970;48.714;9.584;2022-08-06T09:11:28;2.00;;;1.80;;
21615;SDS011;10970;48.714;9.584;2022-08-06T09:13:55;1.83;;;1.40;;
21615;SDS011;10970;48.714;9.584;2022-08-06T09:16:20;1.53;;;1.37;;
21615;SDS011;10970;48.714;9.584;2022-08-06T09:18:46;5.03;;;1.40;;
21615;SDS011;10970;48.714;9.584;2022-08-06T09:21:12;2.00;;;1.40;;
21615;SDS011;10970;48.714;9.584;2022-08-06T09:23:38;1.40;;;1.30;;
21615;SDS011;10970;48.714;9.584;2022-08-06T09:26:05;3.40;;;1.47;;
21615;SDS011;10970;48.714;9.584;2022-08-06T09:28:41;2.07;;;1.40;;
21615;SDS011;10970;48.714;9.584;2022-08-06T09:31:15;3.20;;;1.87;;
21615;SDS011;10970;48.714;9.584;2022-08-06T09:33:43;1.00;;;1.00;;
21615;SDS011;10970;48.714;9.584;2022-08-06T09:36:17;2.27;;;1.17;;
21615;SDS011;10970;48.714;9.584;2022-08-06T09:38:44;1.30;;;1.20;;
21615;SDS011;10970;48.714;9.584;2022-08-06T09:41:21;1.63;;;1.30;;
21615;SDS011;10970;48.714;9.584;2022-08-06T09:43:49;3.50;;;1.40;;
21615;SDS011;10970;48.714;9.584;2022-08-06T09:46:17;2.20;;;1.00;;
21615;SDS011;10970;48.714;9.584;2022-08-06T09:49:00;1.30;;;1.03;;
21615;SDS011;10970;48.714;9.584;2022-08-06T09:51:27;1.40;;;1.07;;
21615;SDS011;10970;48.714;9.584;2022-08-06T09:53:57;1.77;;;1.03;;
21615;SDS011;10970;48.714;9.584;2022-08-06T09:56:24;0.93;;;0.93;;
21615;SDS011;10970;48.714;9.584;2022-08-06T09:58:56;0.90;;;0.90;;
21615;SDS011;10970;48.714;9.584;2022-08-06T10:01:27;1.40;;;1.30;;
21615;SDS011;10970;48.714;9.584;2022-08-06T10:03:54;1.60;;;1.50;;
21615;SDS011;10970;48.714;9.584;2022-08-06T10:06:21;0.90;;;0.90;;
21615;SDS011;10970;48.714;9.584;2022-08-06T10:09:03;0.80;;;0.80;;
21615;SDS011;10970;48.714;9.584;2022-08-06T10:11:49;1.17;;;1.07;;
21615;SDS011;10970;48.714;9.584;2022-08-06T10:14:31;1.57;;;1.27;;
21615;SDS011;10970;48.714;9.584;2022-08-06T10:17:11;0.80;;;0.80;;
21615;SDS011;10970;48.714;9.584;2022-08-06T10:19:44;1.10;;;1.00;;
21615;SDS011;10970;48.714;9.584;2022-08-06T10:22:13;2.03;;;1.10;;
21615;SDS011;10970;48.714;9.584;2022-08-06T10:24:48;1.67;;;1.47;;
21615;SDS011;10970;48.714;9.584;2022-08-06T10:27:16;1.20;;;1.10;;
21615;SDS011;10970;48.714;9.584;2022-08-06T10:29:53;1.30;;;1.20;;
21615;SDS011;10970;48.714;9.584;2022-08-06T10:32:45;1.83;;;1.23;;
21615;SDS011;10970;48.714;9.584;2022-08-06T10:35:20;1.30;;;1.20;;
21615;SDS011;10970;48.714;9.584;2022-08-06T10:38:02;1.13;;;1.00;;
21615;SDS011;10970;48.714;9.584;2022-08-06T10:40:30;1.83;;;1.50;;
21615;SDS011;10970;48.714;9.584;2022-08-06T10:43:02;1.83;;;1.73;;
21615;SDS011;10970;48.714;9.584;2022-08-06T10:45:28;1.33;;;1.23;;
21615;SDS011;10970;48.714;9.584;2022-08-06T10:47:55;1.10;;;1.00;;
21615;SDS011;10970;48.714;9.584;2022-08-06T10:50:22;1.13;;;1.03;;
21615;SDS011;10970;48.714;9.584;2022-08-06T10:52:49;1.43;;;1.33;;
21615;SDS011;10970;48.714;9.584;2022-08-06T10:55:15;1.43;;;1.30;;
21615;SDS011;10970;48.714;9.584;2022-08-06T10:57:42;1.87;;;1.10;;
21615;SDS011;10970;48.714;9.584;2022-08-06T11:00:08;1.43;;;1.33;;
21615;SDS011;10970;48.714;9.584;2022-08-06T11:05:29;4.60;;;1.70;;
21615;SDS011;10970;48.714;9.584;2022-08-06T11:16:27;2.40;;;1.10;;
21615;SDS011;10970;48.714;9.584;2022-08-06T11:18:57;1.70;;;1.10;;
21615;SDS011;10970;48.714;9.584;2022-08-06T11:21:43;1.27;;;1.17;;
21615;SDS011;10970;48.714;9.584;2022-08-06T11:24:13;3.37;;;1.33;;
21615;SDS011;10970;48.714;9.584;2022-08-06T11:26:40;1.47;;;1.10;;
21615;SDS011;10970;48.714;9.584;2022-08-06T11:29:10;1.50;;;1.20;;
21615;SDS011;10970;48.714;9.584;2022-08-06T11:31:45;1.33;;;1.23;;
21615;SDS011;10970;48.714;9.584;2022-08-06T11:34:14;1.00;;;1.00;;
21615;SDS011;10970;48.714;9.584;2022-08-06T11:36:42;1.67;;;1.17;;
21615;SDS011;10970;48.714;9.584;2022-08-06T11:39:16;2.23;;;1.43;;
21615;SDS011;10970;48.714;9.584;2022-08-06T11:41:46;1.30;;;1.10;;
21615;SDS011;10970;48.714;9.584;2022-08-06T11:44:13;1.60;;;1.50;;
21615;SDS011;10970;48.714;9.584;2022-08-06T11:46:42;1.60;;;1.10;;
21615;SDS011;10970;48.714;9.584;2022-08-06T11:49:14;1.43;;;1.30;;
21615;SDS011;10970;48.714;9.584;2022-08-06T11:54:29;1.63;;;1.10;;
21615;SDS011;10970;48.714;9.584;2022-08-06T11:57:22;1.43;;;1.33;;
21615;SDS011;10970;48.714;9.584;2022-08-06T12:05:05;1.67;;;1.40;;
21615;SDS011;10970;48.714;9.584;2022-08-06T12:07:32;1.60;;;1.30;;
21615;SDS011;10970;48.714;9.584;2022-08-06T12:12:43;3.33;;;1.37;;
21615;SDS011;10970;48.714;9.584;2022-08-06T12:23:06;1.50;;;1.40;;
21615;SDS011;10970;48.714;9.584;2022-08-06T12:25:37;1.30;;;1.20;;
21615;SDS011;10970;48.714;9.584;2022-08-06T12:28:05;1.27;;;1.17;;
21615;SDS011;10970;48.714;9.584;2022-08-06T12:30:49;1.47;;;1.37;;
21615;SDS011;10970;48.714;9.584;2022-08-06T12:33:16;1.50;;;1.20;;
21615;SDS011;10970;48.714;9.584;2022-08-06T12:35:56;1.67;;;1.10;;
21615;SDS011;10970;48.714;9.584;2022-08-06T12:38:24;2.57;;;1.17;;
21615;SDS011;10970;48.714;9.584;2022-08-06T12:41:03;2.07;;;1.17;;
21615;SDS011;10970;48.714;9.584;2022-08-06T12:43:30;2.20;;;1.60;;
21615;SDS011;10970;48.714;9.584;2022-08-06T12:46:01;7.00;;;1.40;;
21615;SDS011;10970;48.714;9.584;2022-08-06T12:48:31;1.40;;;1.30;;
21615;SDS011;10970;48.714;9.584;2022-08-06T12:53:42;1.07;;;0.97;;
21615;SDS011;10970;48.714;9.584;2022-08-06T12:56:15;1.60;;;1.50;;
21615;SDS011;10970;48.714;9.584;2022-08-06T12:58:42;2.30;;;1.40;;
21615;SDS011;10970;48.714;9.584;2022-08-06T13:01:11;1.57;;;1.30;;
21615;SDS011;10970;48.714;9.584;2022-08-06T13:03:39;1.50;;;1.40;;
21615;SDS011;10970;48.714;9.584;2022-08-06T13:06:08;1.40;;;1.23;;
21615;SDS011;10970;48.714;9.584;2022-08-06T13:08:36;1.57;;;1.47;;
21615;SDS011;10970;48.714;9.584;2022-08-06T13:11:02;1.20;;;1.10;;
21615;SDS011;10970;48.714;9.584;2022-08-06T13:16:07;1.63;;;1.07;;
21615;SDS011;10970;48.714;9.584;2022-08-06T13:18:40;1.57;;;1.47;;
21615;SDS011;10970;48.714;9.584;2022-08-06T13:21:17;1.50;;;1.37;;
21615;SDS011;10970;48.714;9.584;2022-08-06T13:23:48;2.33;;;1.23;;
21615;SDS011;10970;48.714;9.584;2022-08-06T13:26:18;1.70;;;1.60;;
21615;SDS011;10970;48.714;9.584;2022-08-06T13:29:04;1.33;;;1.10;;
21615;SDS011;10970;48.714;9.584;2022-08-06T13:34:50;1.37;;;1.27;;
21615;SDS011;10970;48.714;9.584;2022-08-06T13:37:17;1.17;;;1.10;;
21615;SDS011;10970;48.714;9.584;2022-08-06T13:39:50;1.53;;;1.33;;
21615;SDS011;10970;48.714;9.584;2022-08-06T13:42:17;3.40;;;1.30;;
21615;SDS011;10970;48.714;9.584;2022-08-06T13:44:46;1.93;;;1.40;;
21615;SDS011;10970;48.714;9.584;2022-08-06T13:47:13;1.50;;;1.40;;
21615;SDS011;10970;48.714;9.584;2022-08-06T13:49:50;2.40;;;1.70;;
21615;SDS011;10970;48.714;9.584;2022-08-06T13:52:15;9.40;;;1.20;;
21615;SDS011;10970;48.714;9.584;2022-08-06T13:54:41;1.40;;;1.30;;
21615;SDS011;10970;48.714;9.584;2022-08-06T13:57:07;3.47;;;1.30;;
21615;SDS011;10970;48.714;9.584;2022-08-06T13:59:33;3.00;;;1.70;;
21615;SDS011;10970;48.714;9.584;2022-08-06T14:02:02;1.50;;;1.40;;
21615;SDS011;10970;48.714;9.584;2022-08-06T14:04:28;5.33;;;1.50;;
21615;SDS011;10970;48.714;9.584;2022-08-06T14:06:55;2.40;;;1.60;;
21615;SDS011;10970;48.714;9.584;2022-08-06T14:09:24;1.63;;;1.53;;
21615;SDS011;10970;48.714;9.584;2022-08-06T14:12:00;1.57;;;1.37;;
21615;SDS011;10970;48.714;9.584;2022-08-06T14:14:28;1.90;;;1.40;;
21615;SDS011;10970;48.714;9.584;2022-08-06T14:16:54;1.50;;;1.00;;
21615;SDS011;10970;48.714;9.584;2022-08-06T14:19:21;1.33;;;1.23;;
21615;SDS011;10970;48.714;9.584;2022-08-06T14:21:47;2.50;;;1.53;;
21615;SDS011;10970;48.714;9.584;2022-08-06T14:24:13;2.50;;;2.17;;
21615;SDS011;10970;48.714;9.584;2022-08-06T14:26:38;2.40;;;1.17;;
21615;SDS011;10970;48.714;9.584;2022-08-06T14:29:04;2.27;;;1.70;;
21615;SDS011;10970;48.714;9.584;2022-08-06T14:31:31;1.40;;;1.30;;
21615;SDS011;10970;48.714;9.584;2022-08-06T14:33:59;1.70;;;1.53;;
21615;SDS011;10970;48.714;9.584;2022-08-06T14:36:26;3.70;;;1.73;;
21615;SDS011;10970;48.714;9.584;2022-08-06T14:38:53;1.40;;;1.30;;
21615;SDS011;10970;48.714;9.584;2022-08-06T14:41:19;3.43;;;1.57;;
21615;SDS011;10970;48.714;9.584;2022-08-06T14:44:04;1.03;;;1.00;;
21615;SDS011;10970;48.714;9.584;2022-08-06T14:46:48;1.43;;;1.00;;
21615;SDS011;10970;48.714;9.584;2022-08-06T14:49:14;1.43;;;1.33;;
21615;SDS011;10970;48.714;9.584;2022-08-06T14:51:40;2.00;;;1.10;;
21615;SDS011;10970;48.714;9.584;2022-08-06T14:54:06;1.10;;;0.90;;
21615;SDS011;10970;48.714;9.584;2022-08-06T14:56:32;1.90;;;1.73;;
21615;SDS011;10970;48.714;9.584;2022-08-06T14:58:58;1.40;;;1.30;;
21615;SDS011;10970;48.714;9.584;2022-08-06T15:01:24;2.00;;;1.40;;
21615;SDS011;10970;48.714;9.584;2022-08-06T15:03:50;1.40;;;1.30;;
21615;SDS011;10970;48.714;9.584;2022-08-06T15:06:16;1.80;;;1.67;;
21615;SDS011;10970;48.714;9.584;2022-08-06T15:08:42;2.07;;;1.27;;
21615;SDS011;10970;48.714;9.584;2022-08-06T15:11:08;2.23;;;1.23;;
21615;SDS011;10970;48.714;9.584;2022-08-06T15:13:34;1.70;;;1.10;;
21615;SDS011;10970;48.714;9.584;2022-08-06T15:16:00;1.23;;;1.13;;
21615;SDS011;10970;48.714;9.584;2022-08-06T15:18:26;3.10;;;1.30;;
21615;SDS011;10970;48.714;9.584;2022-08-06T15:20:52;2.03;;;1.37;;
21615;SDS011;10970;48.714;9.584;2022-08-06T15:23:18;1.00;;;1.00;;
21615;SDS011;10970;48.714;9.584;2022-08-06T15:25:44;4.00;;;1.50;;
21615;SDS011;10970;48.714;9.584;2022-08-06T15:28:10;1.33;;;1.23;;
21615;SDS011;10970;48.714;9.584;2022-08-06T15:30:38;1.90;;;1.80;;
21615;SDS011;10970;48.714;9.584;2022-08-06T15:33:04;1.47;;;1.30;;
21615;SDS011;10970;48.714;9.584;2022-08-06T15:35:30;2.10;;;1.33;;
21615;SDS011;10970;48.714;9.584;2022-08-06T15:37:56;1.90;;;1.60;;
21615;SDS011;10970;48.714;9.584;2022-08-06T15:40:22;2.30;;;1.40;;
21615;SDS011;10970;48.714;9.584;2022-08-06T15:42:48;1.47;;;1.37;;
21615;SDS011;10970;48.714;9.584;2022-08-06T15:45:14;1.37;;;1.30;;
21615;SDS011;10970;48.714;9.584;2022-08-06T15:47:39;3.40;;;1.37;;
21615;SDS011;10970;48.714;9.584;2022-08-06T15:50:05;1.37;;;1.27;;
21615;SDS011;10970;48.714;9.584;2022-08-06T15:52:32;1.57;;;1.20;;
21615;SDS011;10970;48.714;9.584;2022-08-06T15:54:59;1.20;;;1.10;;
21615;SDS011;10970;48.714;9.584;2022-08-06T15:57:26;1.17;;;1.03;;
21615;SDS011;10970;48.714;9.584;2022-08-06T15:59:52;3.07;;;1.30;;
21615;SDS011;10970;48.714;9.584;2022-08-06T16:02:18;3.90;;;1.60;;
21615;SDS011;10970;48.714;9.584;2022-08-06T16:04:44;1.30;;;1.20;;
21615;SDS011;10970;48.714;9.584;2022-08-06T16:07:10;2.97;;;1.70;;
21615;SDS011;10970;48.714;9.584;2022-08-06T16:09:36;1.53;;;1.13;;
21615;SDS011;10970;48.714;9.584;2022-08-06T16:12:02;1.97;;;1.60;;
21615;SDS011;10970;48.714;9.584;2022-08-06T16:14:30;1.37;;;1.27;;